sensor_id;sensor_type;location;lat;lon;timestamp;pressure;altitude;pressure_sealevel;temperature
49557;BMP280;35462;45.048;7.666;2023-07-22T00:01:41;98452.19;;;28.59
49557;BMP280;35462;45.048;7.666;2023-07-22T00:17:01;98455.31;;;28.35
49557;BMP280;35462;45.048;7.666;2023-07-22T00:32:20;98441.53;;;28.13
49557;BMP280;35462;45.048;7.666;2023-07-22T00:47:40;98444.16;;;27.98
49557;BMP280;35462;45.048;7.666;2023-07-22T01:03:00;98468.31;;;27.61
49557;BMP280;35462;45.048;7.666;2023-07-22T01:18:19;98477.69;;;27.52
49557;BMP280;35462;45.048;7.666;2023-07-22T01:33:39;98481.94;;;27.61
49557;BMP280;35462;45.048;7.666;2023-07-22T01:48:58;98493.75;;;27.63
49557;BMP280;35462;45.048;7.666;2023-07-22T02:04:17;98481.13;;;27.53
49557;BMP280;35462;45.048;7.666;2023-07-22T02:19:37;98499.47;;;27.39
49557;BMP280;35462;45.048;7.666;2023-07-22T02:34:56;98517.16;;;27.33
49557;BMP280;35462;45.048;7.666;2023-07-22T02:50:16;98524.22;;;26.90
49557;BMP280;35462;45.048;7.666;2023-07-22T03:05:35;98516.38;;;26.48
49557;BMP280;35462;45.048;7.666;2023-07-22T03:20:56;98525.34;;;26.56
49557;BMP280;35462;45.048;7.666;2023-07-22T03:36:15;98526.50;;;26.60
49557;BMP280;35462;45.048;7.666;2023-07-22T03:51:35;98545.84;;;26.69
49557;BMP280;35462;45.048;7.666;2023-07-22T04:06:54;98543.25;;;26.64
49557;BMP280;35462;45.048;7.666;2023-07-22T04:22:14;98570.47;;;26.46
49557;BMP280;35462;45.048;7.666;2023-07-22T04:37:33;98579.81;;;26.01
49557;BMP280;35462;45.048;7.666;2023-07-22T04:52:54;98585.59;;;26.10
49557;BMP280;35462;45.048;7.666;2023-07-22T05:08:14;98574.13;;;26.48
49557;BMP280;35462;45.048;7.666;2023-07-22T05:23:33;98599.38;;;26.30
49557;BMP280;35462;45.048;7.666;2023-07-22T05:38:53;98605.75;;;26.64
49557;BMP280;35462;45.048;7.666;2023-07-22T05:54:12;98611.84;;;26.70
49557;BMP280;35462;45.048;7.666;2023-07-22T06:09:32;98633.19;;;27.18
49557;BMP280;35462;45.048;7.666;2023-07-22T06:24:51;98650.06;;;27.55
49557;BMP280;35462;45.048;7.666;2023-07-22T06:40:11;98654.66;;;27.73
49557;BMP280;35462;45.048;7.666;2023-07-22T06:55:30;98659.91;;;29.76
49557;BMP280;35462;45.048;7.666;2023-07-22T07:10:50;98667.31;;;30.85
49557;BMP280;35462;45.048;7.666;2023-07-22T07:26:10;98669.34;;;30.32
49557;BMP280;35462;45.048;7.666;2023-07-22T07:41:29;98674.59;;;30.23
49557;BMP280;35462;45.048;7.666;2023-07-22T07:56:49;98688.22;;;30.00
49557;BMP280;35462;45.048;7.666;2023-07-22T08:12:08;98671.91;;;30.30
49557;BMP280;35462;45.048;7.666;2023-07-22T08:27:28;98661.53;;;31.42
49557;BMP280;35462;45.048;7.666;2023-07-22T08:42:49;98657.16;;;32.34
49557;BMP280;35462;45.048;7.666;2023-07-22T08:58:09;98668.75;;;32.25
49557;BMP280;35462;45.048;7.666;2023-07-22T09:13:28;98680.13;;;32.39
49557;BMP280;35462;45.048;7.666;2023-07-22T09:28:54;98679.53;;;32.89
49557;BMP280;35462;45.048;7.666;2023-07-22T09:44:14;98686.03;;;32.35
49557;BMP280;35462;45.048;7.666;2023-07-22T09:59:33;98686.44;;;32.00
49557;BMP280;35462;45.048;7.666;2023-07-22T10:14:53;98671.66;;;32.27
49557;BMP280;35462;45.048;7.666;2023-07-22T10:30:14;98664.56;;;32.41
49557;BMP280;35462;45.048;7.666;2023-07-22T10:45:40;98659.94;;;32.02
49557;BMP280;35462;45.048;7.666;2023-07-22T11:16:46;98639.34;;;32.18
49557;BMP280;35462;45.048;7.666;2023-07-22T11:32:06;98627.97;;;32.46
49557;BMP280;35462;45.048;7.666;2023-07-22T11:47:30;98618.06;;;32.26
49557;BMP280;35462;45.048;7.666;2023-07-22T12:02:50;98612.94;;;31.82
49557;BMP280;35462;45.048;7.666;2023-07-22T12:18:11;98596.34;;;31.48
49557;BMP280;35462;45.048;7.666;2023-07-22T12:33:30;98585.16;;;31.78
49557;BMP280;35462;45.048;7.666;2023-07-22T12:48:50;98589.19;;;31.77
49557;BMP280;35462;45.048;7.666;2023-07-22T13:04:09;98580.13;;;31.67
49557;BMP280;35462;45.048;7.666;2023-07-22T13:19:28;98573.94;;;31.66
49557;BMP280;35462;45.048;7.666;2023-07-22T13:34:48;98560.94;;;31.67
49557;BMP280;35462;45.048;7.666;2023-07-22T13:50:08;98544.72;;;31.69
49557;BMP280;35462;45.048;7.666;2023-07-22T14:05:28;98542.72;;;31.62
49557;BMP280;35462;45.048;7.666;2023-07-22T14:20:47;98536.13;;;31.65
49557;BMP280;35462;45.048;7.666;2023-07-22T14:36:07;98530.75;;;31.82
49557;BMP280;35462;45.048;7.666;2023-07-22T14:51:26;98512.44;;;31.84
49557;BMP280;35462;45.048;7.666;2023-07-22T15:06:46;98513.63;;;31.91
49557;BMP280;35462;45.048;7.666;2023-07-22T15:22:05;98498.66;;;31.92
49557;BMP280;35462;45.048;7.666;2023-07-22T15:37:24;98496.78;;;31.77
49557;BMP280;35462;45.048;7.666;2023-07-22T15:52:44;98489.41;;;31.80
49557;BMP280;35462;45.048;7.666;2023-07-22T16:08:04;98490.22;;;31.73
49557;BMP280;35462;45.048;7.666;2023-07-22T16:23:24;98474.66;;;31.51
49557;BMP280;35462;45.048;7.666;2023-07-22T16:38:43;98477.78;;;31.55
49557;BMP280;35462;45.048;7.666;2023-07-22T16:54:03;98482.34;;;31.52
49557;BMP280;35462;45.048;7.666;2023-07-22T17:09:22;98498.78;;;31.52
49557;BMP280;35462;45.048;7.666;2023-07-22T17:24:41;98508.00;;;31.33
49557;BMP280;35462;45.048;7.666;2023-07-22T17:40:01;98511.75;;;31.20
49557;BMP280;35462;45.048;7.666;2023-07-22T17:55:20;98525.28;;;31.18
49557;BMP280;35462;45.048;7.666;2023-07-22T18:10:40;98540.81;;;31.08
49557;BMP280;35462;45.048;7.666;2023-07-22T18:26:00;98542.34;;;30.95
49557;BMP280;35462;45.048;7.666;2023-07-22T18:41:19;98560.13;;;30.64
49557;BMP280;35462;45.048;7.666;2023-07-22T18:56:40;98571.59;;;30.70
49557;BMP280;35462;45.048;7.666;2023-07-22T19:11:59;98593.31;;;30.68
49557;BMP280;35462;45.048;7.666;2023-07-22T19:27:18;98592.94;;;30.64
49557;BMP280;35462;45.048;7.666;2023-07-22T19:42:41;98612.47;;;30.53
49557;BMP280;35462;45.048;7.666;2023-07-22T19:58:00;98660.59;;;30.41
49557;BMP280;35462;45.048;7.666;2023-07-22T20:13:20;98677.91;;;30.21
49557;BMP280;35462;45.048;7.666;2023-07-22T20:28:40;98681.31;;;30.07
49557;BMP280;35462;45.048;7.666;2023-07-22T20:44:02;98696.41;;;30.00
49557;BMP280;35462;45.048;7.666;2023-07-22T20:59:23;98706.22;;;29.89
49557;BMP280;35462;45.048;7.666;2023-07-22T21:14:42;98714.16;;;29.72
49557;BMP280;35462;45.048;7.666;2023-07-22T21:30:02;98737.44;;;29.65
49557;BMP280;35462;45.048;7.666;2023-07-22T21:45:21;98736.31;;;29.61
49557;BMP280;35462;45.048;7.666;2023-07-22T22:00:41;98750.47;;;29.52
49557;BMP280;35462;45.048;7.666;2023-07-22T22:16:00;98759.53;;;29.47
49557;BMP280;35462;45.048;7.666;2023-07-22T22:31:20;98765.97;;;29.29
49557;BMP280;35462;45.048;7.666;2023-07-22T22:46:40;98767.72;;;29.19
49557;BMP280;35462;45.048;7.666;2023-07-22T23:01:59;98772.19;;;28.89
49557;BMP280;35462;45.048;7.666;2023-07-22T23:17:18;98767.28;;;28.88
49557;BMP280;35462;45.048;7.666;2023-07-22T23:32:39;98768.31;;;28.85
49557;BMP280;35462;45.048;7.666;2023-07-22T23:47:58;98763.16;;;28.74
